sensor_id;sensor_type;location;lat;lon;timestamp;pressure;altitude;pressure_sealevel;temperature;humidity
48968;BME280;46511;53.148;8.204;2023-04-26T00:01:02;101659.81;;;5.25;100.00
48968;BME280;46511;53.148;8.204;2023-04-26T00:03:35;101660.44;;;5.36;100.00
48968;BME280;46511;53.148;8.204;2023-04-26T00:06:06;101665.66;;;5.39;100.00
48968;BME280;46511;53.148;8.204;2023-04-26T00:08:39;101663.88;;;5.41;100.00
48968;BME280;46511;53.148;8.204;2023-04-26T00:11:12;101675.03;;;5.53;100.00
48968;BME280;46511;53.148;8.204;2023-04-26T00:13:43;101692.47;;;5.58;100.00
48968;BME280;46511;53.148;8.204;2023-04-26T00:16:14;101702.31;;;5.92;100.00
48968;BME280;46511;53.148;8.204;2023-04-26T00:18:46;101691.28;;;5.73;100.00
48968;BME280;46511;53.148;8.204;2023-04-26T00:21:19;101672.13;;;5.65;100.00
48968;BME280;46511;53.148;8.204;2023-04-26T00:23:45;101659.38;;;5.85;100.00
48968;BME280;46511;53.148;8.204;2023-04-26T00:26:16;101661.44;;;6.11;100.00
48968;BME280;46511;53.148;8.204;2023-04-26T00:28:47;101670.91;;;5.81;100.00
48968;BME280;46511;53.148;8.204;2023-04-26T00:31:19;101672.00;;;5.71;100.00
48968;BME280;46511;53.148;8.204;2023-04-26T00:33:50;101673.81;;;5.69;100.00
48968;BME280;46511;53.148;8.204;2023-04-26T00:36:21;101667.03;;;5.57;100.00
48968;BME280;46511;53.148;8.204;2023-04-26T00:38:53;101672.59;;;5.43;100.00
48968;BME280;46511;53.148;8.204;2023-04-26T00:41:24;101677.28;;;5.71;100.00
48968;BME280;46511;53.148;8.204;2023-04-26T00:43:56;101675.88;;;5.55;100.00
48968;BME280;46511;53.148;8.204;2023-04-26T00:46:28;101681.47;;;5.39;100.00
48968;BME280;46511;53.148;8.204;2023-04-26T00:49:00;101685.13;;;5.32;100.00
48968;BME280;46511;53.148;8.204;2023-04-26T00:51:32;101682.78;;;5.59;100.00
48968;BME280;46511;53.148;8.204;2023-04-26T00:54:04;101684.94;;;5.82;100.00
48968;BME280;46511;53.148;8.204;2023-04-26T00:56:35;101693.34;;;5.59;100.00
48968;BME280;46511;53.148;8.204;2023-04-26T00:59:09;101686.59;;;5.86;100.00
48968;BME280;46511;53.148;8.204;2023-04-26T01:01:40;101683.91;;;5.89;100.00
48968;BME280;46511;53.148;8.204;2023-04-26T01:04:12;101677.13;;;5.77;100.00
48968;BME280;46511;53.148;8.204;2023-04-26T01:06:44;101681.19;;;5.93;100.00
48968;BME280;46511;53.148;8.204;2023-04-26T01:09:16;101679.38;;;5.95;100.00
48968;BME280;46511;53.148;8.204;2023-04-26T01:11:48;101682.16;;;5.48;100.00
48968;BME280;46511;53.148;8.204;2023-04-26T01:14:21;101681.94;;;5.60;100.00
48968;BME280;46511;53.148;8.204;2023-04-26T01:16:53;101677.00;;;5.83;100.00
48968;BME280;46511;53.148;8.204;2023-04-26T01:19:26;101683.63;;;5.62;100.00
48968;BME280;46511;53.148;8.204;2023-04-26T01:21:58;101681.06;;;5.59;100.00
48968;BME280;46511;53.148;8.204;2023-04-26T01:24:29;101693.41;;;5.56;100.00
48968;BME280;46511;53.148;8.204;2023-04-26T01:27:01;101686.19;;;5.65;100.00
48968;BME280;46511;53.148;8.204;2023-04-26T01:29:34;101689.16;;;5.49;100.00
48968;BME280;46511;53.148;8.204;2023-04-26T01:32:05;101686.53;;;5.49;100.00
48968;BME280;46511;53.148;8.204;2023-04-26T01:34:37;101687.41;;;5.49;100.00
48968;BME280;46511;53.148;8.204;2023-04-26T01:37:08;101688.53;;;5.37;100.00
48968;BME280;46511;53.148;8.204;2023-04-26T01:39:39;101688.25;;;5.08;100.00
48968;BME280;46511;53.148;8.204;2023-04-26T01:42:11;101685.94;;;4.91;100.00
48968;BME280;46511;53.148;8.204;2023-04-26T01:44:42;101692.59;;;5.12;100.00
48968;BME280;46511;53.148;8.204;2023-04-26T01:47:13;101689.53;;;5.30;100.00
48968;BME280;46511;53.148;8.204;2023-04-26T01:49:45;101686.88;;;5.33;100.00
48968;BME280;46511;53.148;8.204;2023-04-26T01:52:16;101679.72;;;5.38;100.00
48968;BME280;46511;53.148;8.204;2023-04-26T01:54:47;101678.25;;;5.25;100.00
48968;BME280;46511;53.148;8.204;2023-04-26T01:57:19;101680.41;;;5.48;100.00
48968;BME280;46511;53.148;8.204;2023-04-26T01:59:50;101679.28;;;5.60;100.00
48968;BME280;46511;53.148;8.204;2023-04-26T02:02:22;101663.31;;;5.66;100.00
48968;BME280;46511;53.148;8.204;2023-04-26T02:04:53;101660.75;;;5.63;100.00
48968;BME280;46511;53.148;8.204;2023-04-26T02:07:24;101669.38;;;5.71;100.00
48968;BME280;46511;53.148;8.204;2023-04-26T02:09:56;101663.19;;;5.72;100.00
48968;BME280;46511;53.148;8.204;2023-04-26T02:12:27;101669.16;;;5.80;100.00
48968;BME280;46511;53.148;8.204;2023-04-26T02:14:58;101669.41;;;5.69;100.00
48968;BME280;46511;53.148;8.204;2023-04-26T02:17:29;101672.25;;;5.59;100.00
48968;BME280;46511;53.148;8.204;2023-04-26T02:20:01;101676.19;;;5.39;100.00
48968;BME280;46511;53.148;8.204;2023-04-26T02:22:33;101674.41;;;5.41;100.00
48968;BME280;46511;53.148;8.204;2023-04-26T02:25:05;101671.00;;;5.36;100.00
48968;BME280;46511;53.148;8.204;2023-04-26T02:27:36;101673.75;;;5.30;100.00
48968;BME280;46511;53.148;8.204;2023-04-26T02:30:07;101671.94;;;5.34;100.00
48968;BME280;46511;53.148;8.204;2023-04-26T02:32:40;101667.72;;;5.25;100.00
48968;BME280;46511;53.148;8.204;2023-04-26T02:35:11;101675.88;;;5.11;100.00
48968;BME280;46511;53.148;8.204;2023-04-26T02:37:43;101673.59;;;4.95;100.00
48968;BME280;46511;53.148;8.204;2023-04-26T02:40:14;101676.78;;;5.12;100.00
48968;BME280;46511;53.148;8.204;2023-04-26T02:42:46;101676.81;;;5.09;100.00
48968;BME280;46511;53.148;8.204;2023-04-26T02:45:18;101676.97;;;5.01;100.00
48968;BME280;46511;53.148;8.204;2023-04-26T02:47:49;101677.13;;;4.94;100.00
48968;BME280;46511;53.148;8.204;2023-04-26T02:50:20;101678.69;;;5.04;100.00
48968;BME280;46511;53.148;8.204;2023-04-26T02:52:52;101679.97;;;4.81;100.00
48968;BME280;46511;53.148;8.204;2023-04-26T02:55:23;101683.63;;;4.74;100.00
48968;BME280;46511;53.148;8.204;2023-04-26T02:57:54;101689.59;;;4.82;100.00
48968;BME280;46511;53.148;8.204;2023-04-26T03:00:25;101687.59;;;4.49;100.00
48968;BME280;46511;53.148;8.204;2023-04-26T03:02:57;101692.47;;;4.70;100.00
48968;BME280;46511;53.148;8.204;2023-04-26T03:05:29;101681.34;;;4.56;100.00
48968;BME280;46511;53.148;8.204;2023-04-26T03:08:00;101684.75;;;4.61;100.00
48968;BME280;46511;53.148;8.204;2023-04-26T03:10:31;101683.72;;;4.70;100.00
48968;BME280;46511;53.148;8.204;2023-04-26T03:13:03;101677.75;;;4.60;100.00
48968;BME280;46511;53.148;8.204;2023-04-26T03:15:35;101677.66;;;4.66;100.00
48968;BME280;46511;53.148;8.204;2023-04-26T03:18:06;101672.44;;;4.62;100.00
48968;BME280;46511;53.148;8.204;2023-04-26T03:20:37;101678.44;;;4.70;100.00
48968;BME280;46511;53.148;8.204;2023-04-26T03:23:09;101672.22;;;4.75;100.00
48968;BME280;46511;53.148;8.204;2023-04-26T03:25:40;101666.25;;;4.64;100.00
48968;BME280;46511;53.148;8.204;2023-04-26T03:28:11;101672.56;;;4.54;100.00
48968;BME280;46511;53.148;8.204;2023-04-26T03:30:42;101671.53;;;4.63;100.00
48968;BME280;46511;53.148;8.204;2023-04-26T03:33:14;101670.50;;;4.71;100.00
48968;BME280;46511;53.148;8.204;2023-04-26T03:35:46;101675.91;;;4.65;100.00
48968;BME280;46511;53.148;8.204;2023-04-26T03:38:18;101678.44;;;4.70;100.00
48968;BME280;46511;53.148;8.204;2023-04-26T03:40:49;101688.91;;;4.73;100.00
48968;BME280;46511;53.148;8.204;2023-04-26T03:43:20;101707.03;;;4.90;100.00
48968;BME280;46511;53.148;8.204;2023-04-26T03:45:51;101703.31;;;5.00;100.00
48968;BME280;46511;53.148;8.204;2023-04-26T03:48:22;101703.28;;;5.03;100.00
48968;BME280;46511;53.148;8.204;2023-04-26T03:50:54;101698.13;;;4.97;100.00
48968;BME280;46511;53.148;8.204;2023-04-26T03:53:25;101698.22;;;4.91;100.00
48968;BME280;46511;53.148;8.204;2023-04-26T03:55:56;101682.41;;;4.94;100.00
48968;BME280;46511;53.148;8.204;2023-04-26T03:58:28;101682.72;;;5.22;100.00
48968;BME280;46511;53.148;8.204;2023-04-26T04:00:59;101682.16;;;5.06;100.00
48968;BME280;46511;53.148;8.204;2023-04-26T04:03:31;101685.69;;;5.05;100.00
48968;BME280;46511;53.148;8.204;2023-04-26T04:06:02;101677.75;;;5.06;100.00
48968;BME280;46511;53.148;8.204;2023-04-26T04:08:33;101687.50;;;5.03;100.00
48968;BME280;46511;53.148;8.204;2023-04-26T04:11:05;101685.88;;;4.96;100.00
48968;BME280;46511;53.148;8.204;2023-04-26T04:13:31;101689.09;;;5.10;100.00
48968;BME280;46511;53.148;8.204;2023-04-26T04:16:02;101694.16;;;5.19;100.00
48968;BME280;46511;53.148;8.204;2023-04-26T04:18:34;101689.03;;;5.11;100.00
48968;BME280;46511;53.148;8.204;2023-04-26T04:21:06;101702.97;;;5.18;100.00
48968;BME280;46511;53.148;8.204;2023-04-26T04:23:37;101697.88;;;5.09;100.00
48968;BME280;46511;53.148;8.204;2023-04-26T04:26:08;101696.50;;;5.34;100.00
48968;BME280;46511;53.148;8.204;2023-04-26T04:28:42;101697.31;;;5.38;100.00
48968;BME280;46511;53.148;8.204;2023-04-26T04:31:14;101687.25;;;5.15;100.00
48968;BME280;46511;53.148;8.204;2023-04-26T04:33:47;101678.06;;;5.34;100.00
48968;BME280;46511;53.148;8.204;2023-04-26T04:36:19;101680.59;;;5.39;100.00
48968;BME280;46511;53.148;8.204;2023-04-26T04:38:50;101681.09;;;5.56;100.00
48968;BME280;46511;53.148;8.204;2023-04-26T04:41:23;101683.22;;;5.40;100.00
48968;BME280;46511;53.148;8.204;2023-04-26T04:43:54;101681.72;;;5.67;100.00
48968;BME280;46511;53.148;8.204;2023-04-26T04:46:25;101683.22;;;5.39;100.00
48968;BME280;46511;53.148;8.204;2023-04-26T04:48:57;101694.31;;;5.55;100.00
48968;BME280;46511;53.148;8.204;2023-04-26T04:51:28;101693.88;;;5.34;100.00
48968;BME280;46511;53.148;8.204;2023-04-26T04:54:07;101702.59;;;5.36;100.00
48968;BME280;46511;53.148;8.204;2023-04-26T04:56:40;101695.50;;;5.40;100.00
48968;BME280;46511;53.148;8.204;2023-04-26T04:59:12;101698.06;;;5.85;100.00
48968;BME280;46511;53.148;8.204;2023-04-26T05:01:43;101699.81;;;5.84;100.00
48968;BME280;46511;53.148;8.204;2023-04-26T05:04:15;101703.84;;;6.02;100.00
48968;BME280;46511;53.148;8.204;2023-04-26T05:06:46;101705.50;;;5.66;100.00
48968;BME280;46511;53.148;8.204;2023-04-26T05:09:18;101697.16;;;5.86;100.00
48968;BME280;46511;53.148;8.204;2023-04-26T05:11:49;101702.81;;;5.69;100.00
48968;BME280;46511;53.148;8.204;2023-04-26T05:14:20;101701.56;;;5.85;100.00
48968;BME280;46511;53.148;8.204;2023-04-26T05:16:51;101713.38;;;6.45;100.00
48968;BME280;46511;53.148;8.204;2023-04-26T05:19:23;101716.25;;;6.34;100.00
48968;BME280;46511;53.148;8.204;2023-04-26T05:21:54;101712.81;;;6.32;100.00
48968;BME280;46511;53.148;8.204;2023-04-26T05:24:28;101715.84;;;6.15;100.00
48968;BME280;46511;53.148;8.204;2023-04-26T05:27:01;101700.34;;;6.39;100.00
48968;BME280;46511;53.148;8.204;2023-04-26T05:29:34;101707.38;;;6.38;100.00
48968;BME280;46511;53.148;8.204;2023-04-26T05:32:05;101713.63;;;6.70;100.00
48968;BME280;46511;53.148;8.204;2023-04-26T05:34:36;101707.38;;;6.74;100.00
48968;BME280;46511;53.148;8.204;2023-04-26T05:37:08;101705.41;;;6.80;100.00
48968;BME280;46511;53.148;8.204;2023-04-26T05:39:39;101709.38;;;6.63;100.00
48968;BME280;46511;53.148;8.204;2023-04-26T05:42:11;101702.19;;;6.35;100.00
48968;BME280;46511;53.148;8.204;2023-04-26T05:44:42;101696.06;;;9.45;100.00
48968;BME280;46511;53.148;8.204;2023-04-26T05:47:13;101689.94;;;10.97;100.00
48968;BME280;46511;53.148;8.204;2023-04-26T05:49:44;101688.25;;;12.10;100.00
48968;BME280;46511;53.148;8.204;2023-04-26T05:52:16;101701.84;;;11.29;96.76
48968;BME280;46511;53.148;8.204;2023-04-26T05:54:47;101704.72;;;11.43;100.00
48968;BME280;46511;53.148;8.204;2023-04-26T05:57:18;101697.81;;;13.02;90.20
48968;BME280;46511;53.148;8.204;2023-04-26T05:59:49;101691.63;;;12.84;84.98
48968;BME280;46511;53.148;8.204;2023-04-26T06:02:21;101687.31;;;13.50;81.68
48968;BME280;46511;53.148;8.204;2023-04-26T06:04:52;101696.50;;;13.44;75.57
48968;BME280;46511;53.148;8.204;2023-04-26T06:07:24;101692.03;;;11.87;87.24
48968;BME280;46511;53.148;8.204;2023-04-26T06:09:55;101698.50;;;13.06;83.03
48968;BME280;46511;53.148;8.204;2023-04-26T06:12:26;101689.00;;;13.84;83.94
48968;BME280;46511;53.148;8.204;2023-04-26T06:14:58;101690.72;;;15.06;64.15
48968;BME280;46511;53.148;8.204;2023-04-26T06:17:29;101687.19;;;16.45;60.09
48968;BME280;46511;53.148;8.204;2023-04-26T06:20:00;101685.34;;;14.32;64.17
48968;BME280;46511;53.148;8.204;2023-04-26T06:22:32;101692.75;;;15.17;61.58
48968;BME280;46511;53.148;8.204;2023-04-26T06:25:03;101694.09;;;16.62;59.02
48968;BME280;46511;53.148;8.204;2023-04-26T06:27:35;101690.78;;;16.59;54.40
48968;BME280;46511;53.148;8.204;2023-04-26T06:30:09;101692.16;;;17.42;56.57
48968;BME280;46511;53.148;8.204;2023-04-26T06:32:40;101698.09;;;17.96;51.09
48968;BME280;46511;53.148;8.204;2023-04-26T06:35:12;101699.34;;;17.41;49.39
48968;BME280;46511;53.148;8.204;2023-04-26T06:37:43;101710.84;;;15.56;52.57
48968;BME280;46511;53.148;8.204;2023-04-26T06:40:14;101705.16;;;17.35;51.08
48968;BME280;46511;53.148;8.204;2023-04-26T06:42:45;101707.50;;;17.40;50.38
48968;BME280;46511;53.148;8.204;2023-04-26T06:45:17;101705.78;;;17.01;52.64
48968;BME280;46511;53.148;8.204;2023-04-26T06:47:50;101702.06;;;18.51;49.52
48968;BME280;46511;53.148;8.204;2023-04-26T06:50:22;101707.44;;;18.51;47.17
48968;BME280;46511;53.148;8.204;2023-04-26T06:52:53;101705.34;;;16.00;49.03
48968;BME280;46511;53.148;8.204;2023-04-26T06:55:24;101708.91;;;17.20;46.32
48968;BME280;46511;53.148;8.204;2023-04-26T06:57:55;101709.06;;;14.98;52.06
48968;BME280;46511;53.148;8.204;2023-04-26T07:00:27;101715.00;;;14.12;59.37
48968;BME280;46511;53.148;8.204;2023-04-26T07:02:59;101715.66;;;14.63;62.67
48968;BME280;46511;53.148;8.204;2023-04-26T07:05:31;101707.94;;;17.21;50.82
48968;BME280;46511;53.148;8.204;2023-04-26T07:08:02;101707.09;;;18.56;46.30
48968;BME280;46511;53.148;8.204;2023-04-26T07:10:33;101702.28;;;22.56;39.25
48968;BME280;46511;53.148;8.204;2023-04-26T07:13:04;101695.81;;;24.88;33.56
48968;BME280;46511;53.148;8.204;2023-04-26T07:15:36;101704.75;;;24.80;33.36
48968;BME280;46511;53.148;8.204;2023-04-26T07:18:07;101708.56;;;21.96;37.05
48968;BME280;46511;53.148;8.204;2023-04-26T07:20:38;101711.63;;;20.36;37.16
48968;BME280;46511;53.148;8.204;2023-04-26T07:23:10;101708.69;;;21.55;37.98
48968;BME280;46511;53.148;8.204;2023-04-26T07:25:41;101708.16;;;20.89;35.47
48968;BME280;46511;53.148;8.204;2023-04-26T07:28:12;101701.50;;;21.34;36.42
48968;BME280;46511;53.148;8.204;2023-04-26T07:30:44;101702.91;;;19.89;38.65
48968;BME280;46511;53.148;8.204;2023-04-26T07:33:15;101706.53;;;22.77;36.43
48968;BME280;46511;53.148;8.204;2023-04-26T07:35:53;101713.91;;;19.19;37.85
48968;BME280;46511;53.148;8.204;2023-04-26T07:38:29;101702.41;;;21.24;36.54
48968;BME280;46511;53.148;8.204;2023-04-26T07:41:00;101706.94;;;20.81;38.30
48968;BME280;46511;53.148;8.204;2023-04-26T07:43:32;101713.19;;;21.75;34.78
48968;BME280;46511;53.148;8.204;2023-04-26T07:46:03;101701.16;;;23.81;32.97
48968;BME280;46511;53.148;8.204;2023-04-26T07:48:34;101697.50;;;24.89;31.28
48968;BME280;46511;53.148;8.204;2023-04-26T07:51:09;101704.56;;;25.77;30.62
48968;BME280;46511;53.148;8.204;2023-04-26T07:53:41;101711.84;;;26.19;29.41
48968;BME280;46511;53.148;8.204;2023-04-26T07:56:13;101702.97;;;22.48;31.77
48968;BME280;46511;53.148;8.204;2023-04-26T07:58:45;101704.84;;;22.96;33.02
48968;BME280;46511;53.148;8.204;2023-04-26T08:01:16;101710.91;;;21.19;34.04
48968;BME280;46511;53.148;8.204;2023-04-26T08:03:47;101714.47;;;18.89;36.70
48968;BME280;46511;53.148;8.204;2023-04-26T08:06:19;101713.09;;;17.75;37.33
48968;BME280;46511;53.148;8.204;2023-04-26T08:08:50;101712.91;;;17.27;39.35
48968;BME280;46511;53.148;8.204;2023-04-26T08:11:23;101707.94;;;16.02;41.77
48968;BME280;46511;53.148;8.204;2023-04-26T08:13:54;101707.75;;;15.91;43.34
48968;BME280;46511;53.148;8.204;2023-04-26T08:16:26;101703.72;;;15.12;44.62
48968;BME280;46511;53.148;8.204;2023-04-26T08:18:57;101722.22;;;13.29;49.38
48968;BME280;46511;53.148;8.204;2023-04-26T08:21:27;101714.53;;;13.72;52.30
48968;BME280;46511;53.148;8.204;2023-04-26T08:23:59;101717.31;;;14.49;49.01
48968;BME280;46511;53.148;8.204;2023-04-26T08:26:30;101717.22;;;13.72;49.20
48968;BME280;46511;53.148;8.204;2023-04-26T08:29:01;101723.81;;;14.14;49.86
48968;BME280;46511;53.148;8.204;2023-04-26T08:31:33;101723.75;;;14.91;47.76
48968;BME280;46511;53.148;8.204;2023-04-26T08:34:05;101721.91;;;13.84;50.10
48968;BME280;46511;53.148;8.204;2023-04-26T08:36:36;101728.78;;;12.87;50.11
48968;BME280;46511;53.148;8.204;2023-04-26T08:39:08;101723.03;;;12.79;52.00
48968;BME280;46511;53.148;8.204;2023-04-26T08:41:41;101729.97;;;12.65;52.91
48968;BME280;46511;53.148;8.204;2023-04-26T08:44:14;101739.19;;;11.85;56.36
48968;BME280;46511;53.148;8.204;2023-04-26T08:49:58;101759.06;;;10.33;82.48
48968;BME280;46511;53.148;8.204;2023-04-26T08:52:33;101773.38;;;10.07;100.00
48968;BME280;46511;53.148;8.204;2023-04-26T08:55:05;101783.06;;;9.84;100.00
48968;BME280;46511;53.148;8.204;2023-04-26T08:57:39;101776.47;;;9.71;100.00
48968;BME280;46511;53.148;8.204;2023-04-26T09:00:10;101773.13;;;9.42;100.00
48968;BME280;46511;53.148;8.204;2023-04-26T09:02:47;101775.88;;;9.39;100.00
48968;BME280;46511;53.148;8.204;2023-04-26T09:05:21;101776.28;;;9.27;100.00
48968;BME280;46511;53.148;8.204;2023-04-26T09:07:56;101769.31;;;9.73;100.00
48968;BME280;46511;53.148;8.204;2023-04-26T09:10:32;101769.69;;;10.33;100.00
48968;BME280;46511;53.148;8.204;2023-04-26T09:13:03;101768.34;;;11.29;100.00
48968;BME280;46511;53.148;8.204;2023-04-26T09:15:34;101764.03;;;12.41;100.00
48968;BME280;46511;53.148;8.204;2023-04-26T09:18:21;101760.78;;;13.57;93.51
48968;BME280;46511;53.148;8.204;2023-04-26T09:21:03;101764.53;;;14.01;89.58
48968;BME280;46511;53.148;8.204;2023-04-26T09:23:36;101765.34;;;14.04;84.78
48968;BME280;46511;53.148;8.204;2023-04-26T09:26:27;101755.84;;;12.63;84.02
48968;BME280;46511;53.148;8.204;2023-04-26T09:29:22;101768.31;;;12.07;93.84
48968;BME280;46511;53.148;8.204;2023-04-26T09:31:50;101762.38;;;16.44;68.07
48968;BME280;46511;53.148;8.204;2023-04-26T09:34:22;101758.72;;;19.09;49.79
48968;BME280;46511;53.148;8.204;2023-04-26T09:36:54;101745.06;;;25.02;39.31
48968;BME280;46511;53.148;8.204;2023-04-26T09:39:30;101756.44;;;23.23;34.41
48968;BME280;46511;53.148;8.204;2023-04-26T09:42:09;101759.78;;;21.27;39.01
48968;BME280;46511;53.148;8.204;2023-04-26T09:44:41;101769.69;;;21.48;39.54
48968;BME280;46511;53.148;8.204;2023-04-26T09:47:12;101765.63;;;16.49;45.66
48968;BME280;46511;53.148;8.204;2023-04-26T09:49:48;101765.47;;;15.09;53.14
48968;BME280;46511;53.148;8.204;2023-04-26T09:52:21;101752.50;;;14.88;58.40
48968;BME280;46511;53.148;8.204;2023-04-26T09:54:53;101765.88;;;15.18;58.17
48968;BME280;46511;53.148;8.204;2023-04-26T09:57:25;101761.28;;;15.34;55.12
48968;BME280;46511;53.148;8.204;2023-04-26T09:59:56;101756.13;;;14.56;57.16
48968;BME280;46511;53.148;8.204;2023-04-26T10:02:27;101760.94;;;14.96;54.35
48968;BME280;46511;53.148;8.204;2023-04-26T10:04:59;101770.28;;;15.33;51.93
48968;BME280;46511;53.148;8.204;2023-04-26T10:07:32;101757.13;;;14.38;55.12
48968;BME280;46511;53.148;8.204;2023-04-26T10:10:04;101762.94;;;15.51;50.58
48968;BME280;46511;53.148;8.204;2023-04-26T10:12:38;101758.66;;;15.48;47.82
48968;BME280;46511;53.148;8.204;2023-04-26T10:15:12;101765.75;;;17.65;43.75
48968;BME280;46511;53.148;8.204;2023-04-26T10:17:43;101757.84;;;18.49;40.56
48968;BME280;46511;53.148;8.204;2023-04-26T10:20:15;101760.53;;;18.49;40.54
48968;BME280;46511;53.148;8.204;2023-04-26T10:22:50;101760.00;;;16.66;43.64
48968;BME280;46511;53.148;8.204;2023-04-26T10:25:33;101752.09;;;16.23;43.59
48968;BME280;46511;53.148;8.204;2023-04-26T10:28:08;101752.81;;;15.98;45.71
48968;BME280;46511;53.148;8.204;2023-04-26T10:30:58;101744.03;;;17.68;42.35
48968;BME280;46511;53.148;8.204;2023-04-26T10:33:31;101743.56;;;19.30;39.58
48968;BME280;46511;53.148;8.204;2023-04-26T10:38:38;101730.28;;;21.24;35.47
48968;BME280;46511;53.148;8.204;2023-04-26T10:41:33;101742.72;;;20.31;35.95
48968;BME280;46511;53.148;8.204;2023-04-26T10:47:24;101742.59;;;21.89;34.26
48968;BME280;46511;53.148;8.204;2023-04-26T10:50:03;101734.88;;;20.92;36.16
48968;BME280;46511;53.148;8.204;2023-04-26T10:52:38;101741.44;;;20.46;35.52
48968;BME280;46511;53.148;8.204;2023-04-26T10:55:37;101731.09;;;20.08;35.06
48968;BME280;46511;53.148;8.204;2023-04-26T10:58:30;101729.91;;;18.98;37.78
48968;BME280;46511;53.148;8.204;2023-04-26T11:03:36;101731.13;;;16.30;41.20
48968;BME280;46511;53.148;8.204;2023-04-26T11:06:08;101742.06;;;15.13;45.13
48968;BME280;46511;53.148;8.204;2023-04-26T11:08:43;101755.16;;;13.94;53.88
48968;BME280;46511;53.148;8.204;2023-04-26T11:11:17;101752.53;;;13.28;63.78
48968;BME280;46511;53.148;8.204;2023-04-26T11:13:49;101766.78;;;12.20;76.17
48968;BME280;46511;53.148;8.204;2023-04-26T11:16:20;101773.34;;;11.55;86.79
48968;BME280;46511;53.148;8.204;2023-04-26T11:18:56;101766.28;;;11.93;91.68
48968;BME280;46511;53.148;8.204;2023-04-26T11:21:27;101762.59;;;11.38;91.31
48968;BME280;46511;53.148;8.204;2023-04-26T11:23:59;101764.50;;;11.73;91.99
48968;BME280;46511;53.148;8.204;2023-04-26T11:26:31;101755.31;;;12.37;83.30
48968;BME280;46511;53.148;8.204;2023-04-26T11:29:06;101753.63;;;13.57;76.86
48968;BME280;46511;53.148;8.204;2023-04-26T11:31:37;101754.91;;;14.46;72.88
48968;BME280;46511;53.148;8.204;2023-04-26T11:34:09;101754.53;;;14.68;69.18
48968;BME280;46511;53.148;8.204;2023-04-26T11:36:40;101753.97;;;14.32;72.67
48968;BME280;46511;53.148;8.204;2023-04-26T11:39:14;101751.28;;;16.36;59.47
48968;BME280;46511;53.148;8.204;2023-04-26T11:41:46;101750.22;;;16.11;58.12
48968;BME280;46511;53.148;8.204;2023-04-26T11:44:18;101754.28;;;18.73;55.37
48968;BME280;46511;53.148;8.204;2023-04-26T11:46:49;101762.44;;;19.30;45.83
48968;BME280;46511;53.148;8.204;2023-04-26T11:49:21;101752.44;;;17.63;49.91
48968;BME280;46511;53.148;8.204;2023-04-26T11:51:52;101756.50;;;17.18;47.06
48968;BME280;46511;53.148;8.204;2023-04-26T11:54:31;101765.03;;;15.17;53.87
48968;BME280;46511;53.148;8.204;2023-04-26T11:57:13;101770.84;;;15.24;55.78
48968;BME280;46511;53.148;8.204;2023-04-26T11:59:46;101765.06;;;15.01;56.77
48968;BME280;46511;53.148;8.204;2023-04-26T12:02:18;101765.50;;;14.79;58.88
48968;BME280;46511;53.148;8.204;2023-04-26T12:04:57;101758.34;;;16.51;55.23
48968;BME280;46511;53.148;8.204;2023-04-26T12:07:24;101758.59;;;16.34;51.97
48968;BME280;46511;53.148;8.204;2023-04-26T12:09:56;101763.63;;;17.45;49.41
48968;BME280;46511;53.148;8.204;2023-04-26T12:12:27;101763.13;;;17.12;48.06
48968;BME280;46511;53.148;8.204;2023-04-26T12:14:58;101745.41;;;20.31;42.97
48968;BME280;46511;53.148;8.204;2023-04-26T12:17:30;101746.50;;;20.39;41.12
48968;BME280;46511;53.148;8.204;2023-04-26T12:20:07;101758.34;;;19.82;43.15
48968;BME280;46511;53.148;8.204;2023-04-26T12:22:40;101758.41;;;18.90;44.70
48968;BME280;46511;53.148;8.204;2023-04-26T12:25:11;101762.22;;;19.33;43.92
48968;BME280;46511;53.148;8.204;2023-04-26T12:27:43;101759.94;;;18.33;41.67
48968;BME280;46511;53.148;8.204;2023-04-26T12:30:14;101773.13;;;16.98;47.02
48968;BME280;46511;53.148;8.204;2023-04-26T12:32:46;101768.69;;;18.24;47.17
48968;BME280;46511;53.148;8.204;2023-04-26T12:35:17;101763.69;;;20.16;41.59
48968;BME280;46511;53.148;8.204;2023-04-26T12:37:49;101770.56;;;19.53;41.41
48968;BME280;46511;53.148;8.204;2023-04-26T12:40:23;101766.97;;;18.23;41.85
48968;BME280;46511;53.148;8.204;2023-04-26T12:42:54;101766.94;;;15.74;47.37
48968;BME280;46511;53.148;8.204;2023-04-26T12:45:26;101768.81;;;15.86;49.70
48968;BME280;46511;53.148;8.204;2023-04-26T12:47:57;101771.16;;;14.89;52.56
48968;BME280;46511;53.148;8.204;2023-04-26T12:50:29;101773.00;;;14.73;56.06
48968;BME280;46511;53.148;8.204;2023-04-26T12:53:00;101787.50;;;14.37;61.05
48968;BME280;46511;53.148;8.204;2023-04-26T12:55:32;101780.59;;;13.18;67.95
48968;BME280;46511;53.148;8.204;2023-04-26T12:58:03;101783.13;;;13.38;68.24
48968;BME280;46511;53.148;8.204;2023-04-26T13:00:34;101779.13;;;13.30;64.77
48968;BME280;46511;53.148;8.204;2023-04-26T13:03:06;101787.91;;;13.32;64.41
48968;BME280;46511;53.148;8.204;2023-04-26T13:05:37;101785.41;;;13.62;60.80
48968;BME280;46511;53.148;8.204;2023-04-26T13:08:09;101786.47;;;13.25;61.37
48968;BME280;46511;53.148;8.204;2023-04-26T13:10:40;101788.78;;;14.30;58.91
48968;BME280;46511;53.148;8.204;2023-04-26T13:13:06;101785.56;;;13.76;60.16
48968;BME280;46511;53.148;8.204;2023-04-26T13:15:37;101787.31;;;14.09;61.33
48968;BME280;46511;53.148;8.204;2023-04-26T13:18:09;101787.50;;;16.97;53.72
48968;BME280;46511;53.148;8.204;2023-04-26T13:20:41;101778.97;;;19.26;42.73
48968;BME280;46511;53.148;8.204;2023-04-26T13:23:12;101779.13;;;19.00;42.83
48968;BME280;46511;53.148;8.204;2023-04-26T13:25:43;101776.94;;;17.84;42.47
48968;BME280;46511;53.148;8.204;2023-04-26T13:28:15;101783.94;;;18.84;42.30